Time;durP1;ratioP1;P1;durP2;ratioP2;P2;SDS_P1;SDS_P2;PMS_P1;PMS_P2;Temp;Humidity;BMP_temperature;BMP_pressure;BME280_temperature;BME280_humidity;BME280_pressure;Samples;Min_cycle;Max_cycle;Signal;HPM_P1;HPM_P2
2023/06/15 00:03:53;;;;;;;3.17;2.97;;;22.80;20.00;;;;;;10437317;28;20728;-76
2023/06/15 00:08:57;;;;;;;3.10;2.90;;;22.60;20.30;;;;;;10436285;28;20221;-76
2023/06/15 00:14:00;;;;;;;3.27;3.07;;;22.60;20.20;;;;;;10426116;28;20231;-76
2023/06/15 00:19:05;;;;;;;3.20;3.00;;;22.50;20.30;;;;;;10431670;28;20217;-75
2023/06/15 00:24:09;;;;;;;3.13;2.93;;;22.50;20.70;;;;;;10432859;28;20251;-75
2023/06/15 00:29:13;;;;;;;3.40;3.13;;;22.40;20.60;;;;;;10424938;28;20222;-76
2023/06/15 00:34:17;;;;;;;3.43;3.13;;;22.40;20.60;;;;;;10432166;28;20608;-76
2023/06/15 00:39:20;;;;;;;3.90;3.17;;;22.20;20.80;;;;;;10428628;28;20320;-76
2023/06/15 00:44:23;;;;;;;3.17;2.97;;;22.20;20.70;;;;;;10435210;28;20235;-76
2023/06/15 00:49:28;;;;;;;3.53;3.23;;;22.20;20.80;;;;;;10436849;28;20231;-76
2023/06/15 00:54:33;;;;;;;3.10;2.90;;;22.10;21.20;;;;;;10432198;28;20229;-76
2023/06/15 00:59:37;;;;;;;3.43;3.03;;;22.00;21.00;;;;;;10431183;28;20217;-76
2023/06/15 01:04:41;;;;;;;3.43;3.23;;;21.90;21.20;;;;;;10436559;28;20220;-76
2023/06/15 01:09:45;;;;;;;3.60;3.30;;;21.80;21.50;;;;;;10434496;28;20221;-76
2023/06/15 01:14:48;;;;;;;3.40;3.07;;;21.70;21.40;;;;;;10430146;28;20255;-76
2023/06/15 01:20:04;;;;;;;3.50;3.30;;;21.60;21.50;;;;;;10427188;28;20231;-76
2023/06/15 01:25:15;;;;;;;3.30;3.10;;;21.60;22.20;;;;;;10432955;28;20315;-75
2023/06/15 01:30:21;;;;;;;3.47;3.20;;;21.60;22.00;;;;;;10433916;28;20275;-76
2023/06/15 01:35:24;;;;;;;3.40;3.20;;;21.50;21.80;;;;;;10444626;28;20927;-75
2023/06/15 01:40:28;;;;;;;3.83;3.53;;;21.50;21.60;;;;;;10442155;28;20802;-76
2023/06/15 01:45:35;;;;;;;3.80;3.50;;;21.40;21.70;;;;;;10433975;28;20323;-76
2023/06/15 01:50:38;;;;;;;3.43;3.17;;;21.30;22.10;;;;;;10427683;28;20260;-71
2023/06/15 01:55:42;;;;;;;3.47;3.13;;;21.30;21.90;;;;;;10426575;28;20236;-73
2023/06/15 02:00:47;;;;;;;4.57;3.50;;;21.20;21.90;;;;;;10426558;28;20233;-73
2023/06/15 02:05:50;;;;;;;3.47;3.13;;;21.10;22.30;;;;;;10428512;28;20233;-73
2023/06/15 02:10:54;;;;;;;3.60;3.30;;;21.10;22.10;;;;;;10427427;28;20256;-73
2023/06/15 02:15:59;;;;;;;3.37;3.17;;;21.00;22.10;;;;;;10425193;28;20227;-73
2023/06/15 02:21:03;;;;;;;3.90;3.60;;;20.90;22.60;;;;;;10424681;28;20618;-73
2023/06/15 02:26:07;;;;;;;3.50;3.20;;;20.90;22.40;;;;;;10424048;28;20233;-73
2023/06/15 02:31:12;;;;;;;3.97;3.67;;;20.90;22.70;;;;;;10424601;28;20252;-74
2023/06/15 02:36:19;;;;;;;3.70;3.40;;;20.80;22.80;;;;;;10422865;28;20221;-73
2023/06/15 02:41:23;;;;;;;3.77;3.57;;;20.70;22.60;;;;;;10420627;28;20253;-73
2023/06/15 02:46:27;;;;;;;3.47;3.23;;;20.60;22.70;;;;;;10426477;28;20233;-73
2023/06/15 02:51:31;;;;;;;4.80;3.90;;;20.60;23.10;;;;;;10420037;28;20234;-73
2023/06/15 02:56:36;;;;;;;3.90;3.60;;;20.60;22.90;;;;;;10424924;28;20655;-73
2023/06/15 03:01:41;;;;;;;3.93;3.47;;;20.60;23.10;;;;;;10422530;28;20271;-73
2023/06/15 03:06:44;;;;;;;3.50;3.20;;;20.50;23.30;;;;;;10424816;28;20753;-73
2023/06/15 03:11:50;;;;;;;3.90;3.60;;;20.40;23.00;;;;;;10424234;28;20225;-73
2023/06/15 03:16:55;;;;;;;3.53;3.30;;;20.30;23.20;;;;;;10424147;28;20221;-73
2023/06/15 03:21:58;;;;;;;3.93;3.73;;;20.30;23.70;;;;;;10427216;28;20221;-73
2023/06/15 03:27:03;;;;;;;4.07;3.77;;;20.30;23.50;;;;;;10424526;28;20641;-73
2023/06/15 03:32:08;;;;;;;4.33;3.60;;;20.30;23.70;;;;;;10418367;28;20232;-73
2023/06/15 03:37:12;;;;;;;4.00;3.70;;;20.20;24.00;;;;;;10422803;28;20230;-73
2023/06/15 03:42:15;;;;;;;4.13;3.80;;;20.20;23.70;;;;;;10419802;28;20240;-73
2023/06/15 03:47:20;;;;;;;3.90;3.60;;;20.20;23.90;;;;;;10413983;28;20739;-73
2023/06/15 03:52:23;;;;;;;4.30;4.00;;;20.20;24.30;;;;;;10421540;28;20229;-74
2023/06/15 03:57:26;;;;;;;3.87;3.67;;;20.20;24.10;;;;;;10422626;28;20236;-73
2023/06/15 04:02:31;;;;;;;5.27;3.90;;;20.20;24.10;;;;;;10421961;28;20240;-73
2023/06/15 04:07:34;;;;;;;3.70;3.40;;;20.20;24.40;;;;;;10423439;28;20831;-73
2023/06/15 04:12:38;;;;;;;3.77;3.53;;;20.10;24.00;;;;;;10420446;28;20221;-73
2023/06/15 04:17:42;;;;;;;3.57;3.37;;;20.20;24.10;;;;;;10416981;28;20221;-73
2023/06/15 04:22:45;;;;;;;4.37;3.97;;;20.20;24.30;;;;;;10420160;28;20221;-73
2023/06/15 04:27:49;;;;;;;4.00;3.60;;;20.20;24.10;;;;;;10416429;28;20713;-73
2023/06/15 04:32:57;;;;;;;4.07;3.77;;;20.20;24.20;;;;;;10417848;28;20239;-73
2023/06/15 04:38:00;;;;;;;4.33;4.03;;;20.20;24.60;;;;;;10416285;28;20303;-73
2023/06/15 04:43:03;;;;;;;3.90;3.60;;;20.20;24.30;;;;;;10421697;28;20251;-72
2023/06/15 04:48:08;;;;;;;3.67;3.47;;;20.20;24.40;;;;;;10422159;28;20225;-73
2023/06/15 04:53:11;;;;;;;4.83;4.30;;;20.20;24.90;;;;;;10421416;28;20786;-73
2023/06/15 04:58:14;;;;;;;4.07;3.77;;;20.20;24.60;;;;;;10419398;28;20220;-73
2023/06/15 05:03:19;;;;;;;5.70;4.10;;;20.20;24.60;;;;;;10422872;28;20225;-73
2023/06/15 05:08:23;;;;;;;4.17;3.87;;;20.20;25.00;;;;;;10420441;28;20236;-73
2023/06/15 05:13:26;;;;;;;4.43;4.13;;;20.20;24.60;;;;;;10423266;28;20232;-72
2023/06/15 05:18:31;;;;;;;4.30;4.00;;;20.20;24.80;;;;;;10423454;28;20240;-73
2023/06/15 05:23:34;;;;;;;4.53;4.13;;;20.20;25.00;;;;;;10425860;28;20334;-80
2023/06/15 05:28:37;;;;;;;4.13;3.83;;;20.20;24.70;;;;;;10423308;28;20224;-74
2023/06/15 05:33:42;;;;;;;4.33;4.03;;;20.20;24.70;;;;;;10435671;28;20312;-75
2023/06/15 05:38:49;;;;;;;4.27;3.93;;;20.20;25.10;;;;;;10433141;28;20228;-74
2023/06/15 05:43:53;;;;;;;6.53;4.33;;;20.20;25.40;;;;;;10429836;28;20316;-74
2023/06/15 05:49:04;;;;;;;4.90;4.50;;;20.10;25.00;;;;;;10430093;28;20271;-74
2023/06/15 05:54:07;;;;;;;5.20;4.70;;;20.10;25.40;;;;;;10428257;28;20237;-74
2023/06/15 05:59:11;;;;;;;4.77;4.33;;;20.20;25.30;;;;;;10433162;28;20735;-76
2023/06/15 06:04:35;;;;;;;4.67;4.27;;;20.20;25.40;;;;;;10437767;28;20772;-75
2023/06/15 06:09:39;;;;;;;4.77;4.10;;;20.20;25.40;;;;;;10432235;28;20221;-75
2023/06/15 06:14:42;;;;;;;4.43;4.07;;;20.30;25.50;;;;;;10424937;28;20225;-74
2023/06/15 06:19:48;;;;;;;4.07;3.77;;;20.30;25.50;;;;;;10424292;28;20224;-73
2023/06/15 06:24:51;;;;;;;5.23;4.63;;;20.40;25.60;;;;;;10423756;28;20229;-73
2023/06/15 06:29:54;;;;;;;4.30;3.90;;;20.50;25.60;;;;;;10420883;28;20226;-73
2023/06/15 06:34:59;;;;;;;4.60;4.20;;;20.60;25.70;;;;;;10422645;28;20268;-73
2023/06/15 06:40:03;;;;;;;4.63;4.33;;;20.70;25.80;;;;;;10419631;28;20216;-74
2023/06/15 06:45:07;;;;;;;4.50;4.10;;;20.80;25.90;;;;;;10422697;28;20565;-72
2023/06/15 06:50:12;;;;;;;4.60;4.20;;;20.90;25.90;;;;;;10427044;28;20226;-72
2023/06/15 06:55:15;;;;;;;3.93;3.53;;;21.00;26.00;;;;;;10425022;28;20741;-72
2023/06/15 07:00:19;;;;;;;4.50;4.10;;;21.20;25.80;;;;;;10419329;28;20636;-72
2023/06/15 07:05:24;;;;;;;4.30;4.00;;;21.30;25.70;;;;;;10423121;28;20625;-73
2023/06/15 07:10:27;;;;;;;5.00;4.50;;;21.40;25.70;;;;;;10419900;28;20307;-72
2023/06/15 07:15:31;;;;;;;4.07;3.77;;;21.60;25.60;;;;;;10423208;28;20237;-72
2023/06/15 07:20:36;;;;;;;4.27;3.97;;;21.80;25.60;;;;;;10421204;28;20344;-72
2023/06/15 07:25:39;;;;;;;4.97;4.33;;;22.00;25.80;;;;;;10418944;28;20235;-72
2023/06/15 07:30:43;;;;;;;3.97;3.67;;;22.10;25.40;;;;;;10418784;28;20232;-72
2023/06/15 07:35:48;;;;;;;4.23;3.83;;;22.30;25.50;;;;;;10420902;28;20237;-72
2023/06/15 07:40:51;;;;;;;4.00;3.70;;;22.50;25.60;;;;;;10419399;28;20253;-72
2023/06/15 07:45:54;;;;;;;6.30;3.90;;;22.60;25.20;;;;;;10415759;28;20264;-72
2023/06/15 07:50:59;;;;;;;4.23;3.93;;;22.80;25.00;;;;;;10419472;28;20248;-72
2023/06/15 07:56:02;;;;;;;4.00;3.70;;;23.00;25.20;;;;;;10419468;28;20225;-73
2023/06/15 08:01:05;;;;;;;3.80;3.60;;;23.20;24.90;;;;;;10420047;28;20272;-72
2023/06/15 08:06:11;;;;;;;3.80;3.50;;;23.40;24.70;;;;;;10421424;28;20233;-72
2023/06/15 08:11:16;;;;;;;4.03;3.73;;;23.60;24.60;;;;;;10421597;28;20225;-72
2023/06/15 08:16:19;;;;;;;3.80;3.57;;;23.70;24.60;;;;;;10417613;28;21027;-72
2023/06/15 08:21:24;;;;;;;4.10;3.80;;;24.00;24.70;;;;;;10415213;28;20700;-72
2023/06/15 08:26:28;;;;;;;3.93;3.63;;;24.30;24.50;;;;;;10418306;28;20324;-72
2023/06/15 08:31:31;;;;;;;4.20;3.80;;;24.50;24.20;;;;;;10417832;28;20714;-72
2023/06/15 08:36:38;;;;;;;3.80;3.43;;;24.70;23.80;;;;;;10417833;28;20229;-72
2023/06/15 08:41:44;;;;;;;4.17;3.83;;;24.90;23.10;;;;;;10420201;28;20236;-72
2023/06/15 08:46:48;;;;;;;3.70;3.40;;;25.10;23.10;;;;;;10414197;28;20229;-75
2023/06/15 08:51:55;;;;;;;3.90;3.60;;;25.20;23.00;;;;;;10416398;28;20225;-71
2023/06/15 08:56:58;;;;;;;3.60;3.37;;;25.40;22.30;;;;;;10413452;28;20697;-72
2023/06/15 09:02:05;;;;;;;4.30;3.90;;;25.60;22.80;;;;;;10404513;28;20542;-72
2023/06/15 09:07:11;;;;;;;3.93;3.60;;;25.80;22.20;;;;;;10414021;28;20225;-72
2023/06/15 09:12:19;;;;;;;4.00;3.70;;;26.00;22.20;;;;;;10403751;28;20232;-72
2023/06/15 09:17:28;;;;;;;3.10;2.90;;;26.20;21.30;;;;;;10411279;28;20232;-72
2023/06/15 09:22:40;;;;;;;3.50;3.30;;;26.50;21.10;;;;;;10403840;28;20318;-71
2023/06/15 09:27:54;;;;;;;3.80;3.50;;;26.70;21.60;;;;;;10407700;28;20295;-71
2023/06/15 09:32:58;;;;;;;4.00;3.70;;;26.90;19.50;;;;;;10405972;28;20225;-71
2023/06/15 09:38:03;;;;;;;4.00;3.70;;;26.90;20.20;;;;;;10401909;28;20264;-71
2023/06/15 09:43:06;;;;;;;3.93;3.63;;;26.90;20.20;;;;;;10407219;28;20717;-72
2023/06/15 09:48:12;;;;;;;3.80;3.50;;;26.80;20.30;;;;;;10405078;28;20217;-72
2023/06/15 09:53:18;;;;;;;3.93;3.63;;;26.80;19.70;;;;;;10410869;28;20225;-72
2023/06/15 09:58:21;;;;;;;3.33;3.13;;;26.80;19.90;;;;;;10410927;28;20225;-72
2023/06/15 10:03:25;;;;;;;3.67;3.47;;;26.80;20.20;;;;;;10420211;28;20233;-72
2023/06/15 10:08:34;;;;;;;5.53;3.37;;;26.80;20.40;;;;;;10414349;28;20236;-72
2023/06/15 10:13:44;;;;;;;3.83;3.53;;;26.90;19.50;;;;;;10414150;28;20221;-72
2023/06/15 10:18:52;;;;;;;3.43;3.23;;;27.10;19.30;;;;;;10437249;28;20224;-75
2023/06/15 10:24:06;;;;;;;3.50;3.30;;;27.20;19.50;;;;;;10438884;28;20225;-75
2023/06/15 10:29:13;;;;;;;3.23;2.93;;;27.20;18.70;;;;;;10441112;28;20261;-75
2023/06/15 10:34:25;;;;;;;3.70;3.40;;;27.20;19.10;;;;;;10435716;28;20225;-74
2023/06/15 10:39:35;;;;;;;3.50;3.30;;;27.20;18.00;;;;;;10420987;28;20235;-72
2023/06/15 10:44:38;;;;;;;3.50;3.20;;;27.10;18.10;;;;;;10404101;28;20229;-72
2023/06/15 10:49:52;;;;;;;3.83;3.50;;;27.10;18.90;;;;;;10407855;28;20520;-69
2023/06/15 10:54:59;;;;;;;3.60;3.30;;;27.10;18.50;;;;;;10408280;28;20230;-71
2023/06/15 11:00:04;;;;;;;3.60;3.30;;;27.20;18.10;;;;;;10401649;28;20220;-71
2023/06/15 11:05:09;;;;;;;3.40;3.20;;;27.30;18.30;;;;;;10402439;28;20608;-70
2023/06/15 11:10:15;;;;;;;3.37;3.17;;;27.30;17.90;;;;;;10407034;28;20232;-71
2023/06/15 11:15:20;;;;;;;3.73;3.43;;;27.30;17.80;;;;;;10409564;28;20234;-71
2023/06/15 11:20:42;;;;;;;3.43;3.20;;;27.40;17.80;;;;;;10406636;28;20232;-71
2023/06/15 11:25:48;;;;;;;4.70;2.90;;;27.40;17.40;;;;;;10404458;28;20284;-71
2023/06/15 11:30:52;;;;;;;3.17;2.97;;;27.50;17.20;;;;;;10398723;28;20229;-74
2023/06/15 11:35:56;;;;;;;3.83;3.53;;;27.40;17.20;;;;;;10404064;28;20275;-70
2023/06/15 11:41:06;;;;;;;3.60;3.30;;;27.40;16.90;;;;;;10414055;28;20251;-70
2023/06/15 11:46:13;;;;;;;3.73;3.43;;;27.20;16.70;;;;;;10405017;28;20251;-70
2023/06/15 11:51:19;;;;;;;3.60;3.40;;;27.20;17.10;;;;;;10410430;28;20226;-70
2023/06/15 11:56:24;;;;;;;3.67;3.37;;;27.30;17.30;;;;;;10418239;28;20232;-70
2023/06/15 12:01:28;;;;;;;10.00;4.00;;;27.40;17.70;;;;;;10413423;28;20245;-70
2023/06/15 12:06:35;;;;;;;3.97;3.67;;;27.40;17.50;;;;;;10413556;28;20241;-70
2023/06/15 12:11:39;;;;;;;3.60;3.33;;;27.50;17.90;;;;;;10407976;28;20229;-70
2023/06/15 12:16:50;;;;;;;4.07;3.77;;;27.60;16.90;;;;;;10398749;28;20312;-70
2023/06/15 12:21:58;;;;;;;3.70;3.50;;;27.70;16.10;;;;;;10398639;28;20221;-70
2023/06/15 12:27:03;;;;;;;3.70;3.50;;;27.70;16.80;;;;;;10401896;28;20235;-70
2023/06/15 12:32:07;;;;;;;4.53;3.40;;;27.70;16.60;;;;;;10411582;28;20220;-71
2023/06/15 12:37:11;;;;;;;3.90;3.47;;;27.80;16.70;;;;;;10418841;28;20229;-71
2023/06/15 12:42:20;;;;;;;3.97;3.67;;;27.80;16.50;;;;;;10414651;28;20220;-70
2023/06/15 12:47:24;;;;;;;3.60;3.40;;;27.90;16.00;;;;;;10415993;28;20631;-71
2023/06/15 12:52:27;;;;;;;3.57;3.30;;;27.90;16.50;;;;;;10414967;28;20340;-71
2023/06/15 12:57:32;;;;;;;3.67;3.47;;;27.90;16.20;;;;;;10412705;28;20333;-71
2023/06/15 13:02:35;;;;;;;3.70;3.40;;;27.90;15.60;;;;;;10416942;28;20238;-73
2023/06/15 13:07:39;;;;;;;3.63;3.43;;;28.00;16.10;;;;;;10415941;28;20244;-71
2023/06/15 13:12:44;;;;;;;3.23;3.03;;;27.90;15.40;;;;;;10416706;28;20222;-71
2023/06/15 13:17:47;;;;;;;3.80;3.50;;;28.00;15.30;;;;;;10412226;28;20232;-71
2023/06/15 13:22:51;;;;;;;3.60;3.40;;;28.10;15.80;;;;;;10409276;28;20630;-71
2023/06/15 13:27:56;;;;;;;3.97;3.47;;;28.10;15.30;;;;;;10468333;22;20225;-66
2023/06/15 13:33:00;;;;;;;3.93;3.60;;;28.00;14.90;;;;;;10467766;28;20252;-66
2023/06/15 13:38:07;;;;;;;3.60;3.30;;;27.80;15.00;;;;;;10435724;28;20225;-67
2023/06/15 13:43:12;;;;;;;3.53;3.33;;;27.70;15.40;;;;;;10435648;28;20246;-66
2023/06/15 13:48:15;;;;;;;3.70;3.40;;;27.60;15.40;;;;;;10436342;28;20317;-66
2023/06/15 13:53:18;;;;;;;4.70;3.47;;;27.60;15.60;;;;;;10439807;28;20360;-66
2023/06/15 13:58:24;;;;;;;3.70;3.50;;;27.70;15.70;;;;;;10428635;28;20727;-66
2023/06/15 14:03:27;;;;;;;3.70;3.50;;;27.80;15.20;;;;;;10429768;28;20320;-66
2023/06/15 14:08:31;;;;;;;3.43;3.23;;;27.90;15.40;;;;;;10436178;28;20240;-66
2023/06/15 14:13:36;;;;;;;4.03;3.73;;;28.00;15.20;;;;;;10438789;28;20228;-67
2023/06/15 14:18:41;;;;;;;5.60;3.40;;;28.10;14.90;;;;;;10438146;28;20244;-66
2023/06/15 14:23:44;;;;;;;3.77;3.47;;;28.10;14.90;;;;;;10442483;28;20316;-67
2023/06/15 14:28:49;;;;;;;3.93;3.63;;;28.00;14.80;;;;;;10427844;28;20271;-67
2023/06/15 14:33:53;;;;;;;3.57;3.27;;;28.00;14.60;;;;;;10449133;28;20223;-67
2023/06/15 14:38:56;;;;;;;3.77;3.40;;;28.00;14.90;;;;;;10437357;28;20319;-67
2023/06/15 14:44:00;;;;;;;3.53;3.23;;;28.00;14.50;;;;;;10430187;28;20739;-72
2023/06/15 14:49:04;;;;;;;3.80;3.50;;;28.10;14.20;;;;;;10433503;28;20250;-71
2023/06/15 14:54:08;;;;;;;3.43;3.23;;;28.10;14.20;;;;;;10435909;28;20877;-71
2023/06/15 14:59:13;;;;;;;3.50;3.30;;;28.20;14.20;;;;;;10432484;28;20286;-71
2023/06/15 15:04:16;;;;;;;3.50;3.20;;;28.30;13.90;;;;;;10439448;28;20230;-71
2023/06/15 15:09:20;;;;;;;3.50;3.30;;;28.30;14.20;;;;;;10432255;28;20220;-71
2023/06/15 15:14:25;;;;;;;3.53;3.30;;;28.30;13.90;;;;;;10448776;28;20247;-71
2023/06/15 15:19:28;;;;;;;3.70;3.40;;;28.40;13.80;;;;;;10431463;28;20696;-71
2023/06/15 15:24:31;;;;;;;3.50;3.30;;;28.40;13.50;;;;;;10434524;28;20229;-71
2023/06/15 15:29:36;;;;;;;3.57;3.30;;;28.40;13.70;;;;;;10424962;28;20234;-71
2023/06/15 15:34:39;;;;;;;3.70;3.50;;;28.40;13.20;;;;;;10430498;28;20245;-71
2023/06/15 15:39:42;;;;;;;3.43;3.13;;;28.50;13.40;;;;;;10433965;28;20254;-71
2023/06/15 15:44:46;;;;;;;3.50;3.20;;;28.50;13.50;;;;;;10434842;28;20225;-71
2023/06/15 15:49:49;;;;;;;3.80;3.50;;;28.50;13.00;;;;;;10427190;28;20236;-71
2023/06/15 15:54:53;;;;;;;3.60;3.30;;;28.50;13.00;;;;;;10433252;28;20221;-70
2023/06/15 15:59:57;;;;;;;3.83;3.60;;;28.50;13.00;;;;;;10434965;28;20596;-70
2023/06/15 16:05:02;;;;;;;3.50;3.30;;;28.60;12.90;;;;;;10431413;28;20257;-70
2023/06/15 16:10:06;;;;;;;3.73;3.43;;;28.60;13.00;;;;;;10428566;28;20765;-70
2023/06/15 16:15:11;;;;;;;3.73;3.43;;;28.60;12.70;;;;;;10429924;28;20243;-70
2023/06/15 16:20:15;;;;;;;3.60;3.40;;;28.70;12.30;;;;;;10428894;28;20236;-71
2023/06/15 16:25:19;;;;;;;3.63;3.33;;;28.70;12.60;;;;;;10438122;28;20233;-71
2023/06/15 16:30:23;;;;;;;4.00;3.60;;;28.80;12.70;;;;;;10427400;28;20242;-70
2023/06/15 16:35:26;;;;;;;3.40;3.20;;;28.80;12.30;;;;;;10434917;28;20231;-71
2023/06/15 16:40:30;;;;;;;3.70;3.50;;;28.90;12.50;;;;;;10432023;28;20298;-70
2023/06/15 16:45:34;;;;;;;3.50;3.30;;;29.00;12.30;;;;;;10429254;28;20236;-71
2023/06/15 16:50:37;;;;;;;3.30;3.10;;;29.00;11.80;;;;;;10429302;28;20688;-71
2023/06/15 16:55:41;;;;;;;3.53;3.23;;;29.00;11.80;;;;;;10426859;28;20470;-71
2023/06/15 17:00:45;;;;;;;3.50;3.30;;;29.00;12.10;;;;;;10425003;28;20300;-71
2023/06/15 17:05:49;;;;;;;3.77;3.40;;;29.00;11.30;;;;;;10423391;28;20233;-70
2023/06/15 17:10:53;;;;;;;3.70;3.50;;;28.90;11.60;;;;;;10419789;28;20225;-71
2023/06/15 17:15:58;;;;;;;3.93;3.63;;;28.90;11.60;;;;;;10420260;28;20770;-70
2023/06/15 17:21:01;;;;;;;3.40;3.10;;;28.80;11.40;;;;;;10420038;28;20226;-71
2023/06/15 17:26:05;;;;;;;3.47;3.20;;;28.90;11.70;;;;;;10419328;28;20222;-71
2023/06/15 17:31:10;;;;;;;3.97;3.57;;;28.90;11.50;;;;;;10423692;28;20791;-70
2023/06/15 17:36:13;;;;;;;3.47;3.13;;;28.90;11.30;;;;;;10420810;28;20720;-70
2023/06/15 17:41:16;;;;;;;3.53;3.23;;;28.90;11.50;;;;;;10422641;28;20216;-71
2023/06/15 17:46:21;;;;;;;3.47;3.27;;;28.90;11.40;;;;;;10422629;28;20343;-71
2023/06/15 17:51:24;;;;;;;3.03;2.83;;;29.00;11.20;;;;;;10424242;28;20229;-71
2023/06/15 17:56:27;;;;;;;3.70;3.40;;;29.00;12.00;;;;;;10423338;28;20235;-71
2023/06/15 18:01:32;;;;;;;4.23;3.57;;;29.00;11.70;;;;;;10426613;28;20229;-71
2023/06/15 18:06:37;;;;;;;4.13;3.83;;;28.90;11.70;;;;;;10422812;28;20721;-71
2023/06/15 18:11:40;;;;;;;4.10;3.80;;;28.80;12.00;;;;;;10427233;28;20290;-70
2023/06/15 18:16:45;;;;;;;4.10;3.80;;;28.60;12.10;;;;;;10420733;28;20599;-71
2023/06/15 18:21:48;;;;;;;3.70;3.50;;;28.50;12.20;;;;;;10431564;28;21145;-71
2023/06/15 18:26:51;;;;;;;3.67;3.37;;;28.50;12.50;;;;;;10424648;28;20746;-71
2023/06/15 18:31:56;;;;;;;3.80;3.50;;;28.40;12.70;;;;;;10426561;28;20312;-71
2023/06/15 18:36:59;;;;;;;3.93;3.40;;;28.30;12.70;;;;;;10437506;28;20239;-71
2023/06/15 18:42:02;;;;;;;3.73;3.50;;;28.10;12.90;;;;;;10430199;28;20221;-70
2023/06/15 18:47:10;;;;;;;3.60;3.30;;;28.00;12.90;;;;;;10424842;28;20658;-71
2023/06/15 18:52:14;;;;;;;3.87;3.50;;;27.80;13.40;;;;;;10434630;28;20231;-70
2023/06/15 18:57:17;;;;;;;3.53;3.23;;;27.60;13.40;;;;;;10436851;28;20228;-70
2023/06/15 19:02:22;;;;;;;3.33;3.10;;;27.40;13.60;;;;;;10434514;28;20711;-70
2023/06/15 19:07:25;;;;;;;3.47;3.23;;;27.20;13.80;;;;;;10433475;28;20227;-70
2023/06/15 19:12:29;;;;;;;3.50;3.27;;;27.10;14.00;;;;;;10434010;28;20257;-70
2023/06/15 19:17:33;;;;;;;3.30;3.10;;;27.00;14.30;;;;;;10434539;28;20959;-70
2023/06/15 19:22:37;;;;;;;4.00;3.03;;;26.80;14.60;;;;;;10432141;28;20762;-70
2023/06/15 19:27:40;;;;;;;3.20;3.00;;;26.70;14.70;;;;;;10435502;28;20257;-70
2023/06/15 19:32:44;;;;;;;5.83;3.23;;;26.60;14.70;;;;;;10430251;28;20225;-70
2023/06/15 19:37:48;;;;;;;4.90;3.00;;;26.50;15.00;;;;;;10425981;28;20233;-70
2023/06/15 19:42:51;;;;;;;3.23;3.03;;;26.40;14.90;;;;;;10442361;28;20617;-70
2023/06/15 19:47:56;;;;;;;2.97;2.77;;;26.20;15.20;;;;;;10424594;28;20228;-71
2023/06/15 19:52:59;;;;;;;3.50;3.20;;;26.10;15.50;;;;;;10424321;28;20606;-70
2023/06/15 19:58:02;;;;;;;3.40;3.20;;;26.00;15.50;;;;;;10430272;28;20315;-70
2023/06/15 20:03:06;;;;;;;3.97;3.17;;;25.90;15.60;;;;;;10429204;28;20229;-70
2023/06/15 20:08:10;;;;;;;2.97;2.77;;;25.80;15.80;;;;;;10432716;28;20764;-71
2023/06/15 20:13:14;;;;;;;3.27;3.03;;;25.70;15.90;;;;;;10431792;28;20302;-70
2023/06/15 20:18:19;;;;;;;4.13;3.20;;;25.60;16.10;;;;;;10433568;28;20616;-70
2023/06/15 20:23:22;;;;;;;3.17;2.97;;;25.50;16.60;;;;;;10428615;28;20860;-70
2023/06/15 20:28:26;;;;;;;4.23;3.10;;;25.40;16.50;;;;;;10431396;28;20259;-70
2023/06/15 20:33:31;;;;;;;2.90;2.70;;;25.40;16.50;;;;;;10418564;28;20231;-70
2023/06/15 20:38:35;;;;;;;3.37;3.10;;;25.20;16.80;;;;;;10426651;28;20264;-70
2023/06/15 20:43:38;;;;;;;3.40;3.10;;;25.00;16.70;;;;;;10429219;28;20233;-70
2023/06/15 20:48:43;;;;;;;3.43;3.13;;;24.90;16.90;;;;;;10435670;28;20248;-70
2023/06/15 20:53:46;;;;;;;3.70;3.40;;;24.60;17.10;;;;;;10429814;28;20224;-70
2023/06/15 20:58:49;;;;;;;2.97;2.50;;;24.40;17.20;;;;;;10427613;28;21548;-70
2023/06/15 21:03:54;;;;;;;2.80;2.60;;;24.20;17.40;;;;;;10441870;28;20217;-70
2023/06/15 21:08:57;;;;;;;2.93;2.73;;;24.00;17.90;;;;;;10434812;28;20248;-70
2023/06/15 21:14:00;;;;;;;3.80;3.50;;;23.90;17.80;;;;;;10416106;28;20605;-70
2023/06/15 21:19:05;;;;;;;2.87;2.67;;;23.90;17.80;;;;;;10418645;28;20220;-70
2023/06/15 21:24:08;;;;;;;3.70;3.40;;;23.90;18.10;;;;;;10416138;28;20225;-70
2023/06/15 21:29:13;;;;;;;3.97;3.57;;;23.80;17.70;;;;;;10417770;28;20217;-70
2023/06/15 21:34:18;;;;;;;5.57;3.30;;;23.70;17.70;;;;;;10414460;28;20218;-70
2023/06/15 21:39:21;;;;;;;3.60;3.30;;;23.60;18.30;;;;;;10422068;28;20229;-70
2023/06/15 21:44:25;;;;;;;3.17;2.97;;;23.40;18.10;;;;;;10409319;28;20247;-70
2023/06/15 21:49:29;;;;;;;3.37;3.07;;;23.20;18.50;;;;;;10425419;28;20700;-70
2023/06/15 21:54:34;;;;;;;4.47;3.30;;;23.00;19.10;;;;;;10424622;28;20239;-70
2023/06/15 21:59:37;;;;;;;3.83;3.53;;;22.90;18.80;;;;;;10426370;28;20232;-70
2023/06/15 22:04:44;;;;;;;3.83;3.50;;;22.80;18.90;;;;;;10415300;28;20236;-70
2023/06/15 22:09:47;;;;;;;3.77;3.47;;;22.50;19.50;;;;;;10424955;28;20239;-70
2023/06/15 22:14:52;;;;;;;3.50;3.20;;;22.20;19.30;;;;;;10430965;28;20282;-70
2023/06/15 22:19:58;;;;;;;3.57;3.27;;;22.00;19.50;;;;;;10430936;28;20233;-70
2023/06/15 22:25:02;;;;;;;4.00;3.70;;;21.90;20.40;;;;;;10431997;28;20233;-69
2023/06/15 22:30:07;;;;;;;4.03;3.70;;;21.80;20.10;;;;;;10429174;28;20225;-69
2023/06/15 22:35:11;;;;;;;3.93;3.57;;;21.70;21.00;;;;;;10435009;28;20242;-70
2023/06/15 22:40:16;;;;;;;4.27;3.40;;;21.40;20.90;;;;;;10434356;28;20717;-70
2023/06/15 22:45:19;;;;;;;3.70;3.40;;;21.10;20.90;;;;;;10431130;28;20233;-70
2023/06/15 22:50:24;;;;;;;3.40;3.10;;;20.90;21.00;;;;;;10430325;28;20228;-70
2023/06/15 22:55:27;;;;;;;3.80;3.50;;;20.80;21.60;;;;;;10438150;28;20319;-70
2023/06/15 23:00:31;;;;;;;4.30;4.00;;;20.80;21.50;;;;;;10440242;28;20602;-70
2023/06/15 23:05:36;;;;;;;3.73;3.43;;;20.80;21.50;;;;;;10430391;28;20233;-70
2023/06/15 23:10:40;;;;;;;4.17;3.53;;;20.90;22.30;;;;;;10439263;28;20319;-70
2023/06/15 23:15:44;;;;;;;4.23;3.93;;;20.90;22.40;;;;;;10432290;28;20238;-70
2023/06/15 23:20:49;;;;;;;4.07;3.67;;;21.00;21.90;;;;;;10435345;28;20566;-70
2023/06/15 23:25:54;;;;;;;4.43;4.03;;;20.90;22.20;;;;;;10429062;28;20316;-70
2023/06/15 23:30:57;;;;;;;4.00;3.30;;;20.90;21.90;;;;;;10428083;28;20229;-70
2023/06/15 23:36:02;;;;;;;3.23;3.00;;;20.90;22.00;;;;;;10430390;28;20227;-70
2023/06/15 23:41:05;;;;;;;4.40;4.00;;;20.90;22.40;;;;;;10429112;28;20336;-70
2023/06/15 23:46:08;;;;;;;3.83;3.60;;;20.90;22.30;;;;;;10447520;28;20323;-70
2023/06/15 23:51:13;;;;;;;3.70;3.40;;;20.90;22.20;;;;;;10432833;28;20282;-70
2023/06/15 23:56:16;;;;;;;3.63;3.43;;;20.90;22.60;;;;;;10430645;28;20274;-70
